N369WG KOKC-
Flight info
| Callsign | N369WG |
|---|---|
| Flight time | N/A |
| Altitude | VFR |
| Route | VFR SOUTH |
| Aircraft | P28B/L-DOV/C |
Departure
| Time | 2026-04-27 22:25 |
|---|---|
| Airport | OKC Will Rogers World Airport (KOKC) |
Arrival
| Time | N/A |
|---|---|
| Airport | - |
| Time | Latitude | Longitude | Altitude | Speed | Heading |
|---|---|---|---|---|---|
| 2026-04-27 22:19 | 35.39644 | -97.58580 | 1286 ft | 17 kts | 334° |
| 2026-04-27 22:19 | 35.39687 | -97.58602 | 1287 ft | 0 kts | 338° |
| 2026-04-27 22:19 | 35.39691 | -97.58605 | 1287 ft | 5 kts | 339° |
| 2026-04-27 22:20 | 35.39721 | -97.58695 | 1287 ft | 18 kts | 271° |
| 2026-04-27 22:20 | 35.39720 | -97.58868 | 1288 ft | 22 kts | 270° |
| 2026-04-27 22:20 | 35.39710 | -97.59039 | 1293 ft | 16 kts | 229° |
| 2026-04-27 22:20 | 35.39606 | -97.59064 | 1291 ft | 15 kts | 180° |
| 2026-04-27 22:21 | 35.39502 | -97.59063 | 1291 ft | 14 kts | 181° |
| 2026-04-27 22:21 | 35.39415 | -97.59063 | 1293 ft | 11 kts | 179° |
| 2026-04-27 22:21 | 35.39341 | -97.59063 | 1292 ft | 11 kts | 181° |
| 2026-04-27 22:21 | 35.39248 | -97.59063 | 1290 ft | 15 kts | 180° |
| 2026-04-27 22:22 | 35.39130 | -97.59063 | 1288 ft | 18 kts | 179° |
| 2026-04-27 22:22 | 35.39010 | -97.59063 | 1290 ft | 17 kts | 179° |
| 2026-04-27 22:22 | 35.38897 | -97.59062 | 1289 ft | 15 kts | 179° |
| 2026-04-27 22:22 | 35.38841 | -97.59062 | 1288 ft | 0 kts | 182° |
| 2026-04-27 22:23 | 35.38837 | -97.59062 | 1288 ft | 3 kts | 180° |
| 2026-04-27 22:23 | 35.38809 | -97.59046 | 1288 ft | 3 kts | 131° |
| 2026-04-27 22:23 | 35.38808 | -97.59044 | 1288 ft | 0 kts | 128° |
| 2026-04-27 22:24 | 35.38801 | -97.59027 | 1287 ft | 6 kts | 104° |
| 2026-04-27 22:24 | 35.38802 | -97.58943 | 1289 ft | 10 kts | 74° |
| 2026-04-27 22:24 | 35.38873 | -97.58895 | 1291 ft | 17 kts | 2° |
| 2026-04-27 22:25 | 35.39163 | -97.58892 | 1292 ft | 64 kts | 2° |
| 2026-04-27 22:25 | 35.39701 | -97.58931 | 1404 ft | 84 kts | 346° |
| 2026-04-27 22:25 | 35.40164 | -97.59365 | 1715 ft | 85 kts | 307° |
| 2026-04-27 22:25 | 35.40269 | -97.60079 | 2040 ft | 93 kts | 272° |
| 2026-04-27 22:26 | 35.40361 | -97.60907 | 2188 ft | 103 kts | 283° |
| 2026-04-27 22:26 | 35.40514 | -97.61760 | 2424 ft | 104 kts | 287° |
| 2026-04-27 22:26 | 35.40616 | -97.62630 | 2671 ft | 103 kts | 268° |
| 2026-04-27 22:26 | 35.40301 | -97.63426 | 2890 ft | 109 kts | 231° |
| 2026-04-27 22:27 | 35.39671 | -97.63982 | 3071 ft | 114 kts | 208° |
| 2026-04-27 22:27 | 35.38890 | -97.64304 | 3209 ft | 121 kts | 194° |
| 2026-04-27 22:27 | 35.38034 | -97.64445 | 3357 ft | 128 kts | 187° |
| 2026-04-27 22:27 | 35.37157 | -97.64526 | 3516 ft | 128 kts | 189° |
| 2026-04-27 22:28 | 35.36251 | -97.64566 | 3672 ft | 132 kts | 181° |
| 2026-04-27 22:28 | 35.35366 | -97.64522 | 3922 ft | 125 kts | 185° |
| 2026-04-27 22:28 | 35.34477 | -97.64553 | 4016 ft | 133 kts | 187° |
| 2026-04-27 22:28 | 35.33555 | -97.64658 | 4085 ft | 135 kts | 192° |
| 2026-04-27 22:29 | 35.32621 | -97.64743 | 4062 ft | 135 kts | 187° |
| 2026-04-27 22:29 | 35.31675 | -97.64826 | 4030 ft | 137 kts | 189° |
| 2026-04-27 22:29 | 35.30737 | -97.64968 | 3954 ft | 139 kts | 188° |
| 2026-04-27 22:29 | 35.29763 | -97.64962 | 3855 ft | 145 kts | 177° |
| 2026-04-27 22:30 | 35.28741 | -97.64808 | 3658 ft | 153 kts | 176° |
| 2026-04-27 22:30 | 35.27694 | -97.64472 | 3432 ft | 159 kts | 153° |
| 2026-04-27 22:30 | 35.26889 | -97.63573 | 3290 ft | 160 kts | 124° |
| 2026-04-27 22:30 | 35.26610 | -97.62350 | 3047 ft | 146 kts | 73° |
| 2026-04-27 22:31 | 35.27069 | -97.61318 | 2710 ft | 138 kts | 48° |
| 2026-04-27 22:31 | 35.27312 | -97.60274 | 2291 ft | 150 kts | 120° |
| 2026-04-27 22:31 | 35.26402 | -97.60039 | 1925 ft | 140 kts | 213° |
| 2026-04-27 22:31 | 35.26107 | -97.60802 | 1933 ft | 99 kts | 316° |
| 2026-04-27 22:32 | 35.26757 | -97.60913 | 1738 ft | 92 kts | 329° |
| 2026-04-27 22:32 | 35.27210 | -97.61431 | 1530 ft | 87 kts | 310° |
| 2026-04-27 22:32 | 35.27714 | -97.61787 | 1423 ft | 85 kts | 320° |
| 2026-04-27 22:32 | 35.28267 | -97.61950 | 1283 ft | 74 kts | 334° |
| 2026-04-27 22:33 | 35.28724 | -97.62057 | 1250 ft | 60 kts | 344° |
| 2026-04-27 22:33 | 35.29156 | -97.62209 | 1390 ft | 68 kts | 341° |
| 2026-04-27 22:33 | 35.29491 | -97.62579 | 1564 ft | 81 kts | 270° |
| 2026-04-27 22:33 | 35.28999 | -97.63019 | 1668 ft | 94 kts | 182° |
| 2026-04-27 22:34 | 35.28324 | -97.62903 | 1702 ft | 97 kts | 159° |
| 2026-04-27 22:34 | 35.28014 | -97.62289 | 1542 ft | 88 kts | 79° |
| 2026-04-27 22:34 | 35.28399 | -97.61978 | 1272 ft | 71 kts | 348° |
| 2026-04-27 22:34 | 35.28807 | -97.62077 | 1245 ft | 56 kts | 348° |
| 2026-04-27 22:35 | 35.29087 | -97.62368 | 1451 ft | 69 kts | 269° |
| 2026-04-27 22:35 | 35.28727 | -97.62882 | 1517 ft | 94 kts | 231° |
| 2026-04-27 22:35 | 35.28260 | -97.63443 | 1759 ft | 96 kts | 229° |
| 2026-04-27 22:35 | 35.27802 | -97.63977 | 1921 ft | 94 kts | 234° |
| 2026-04-27 22:36 | 35.27318 | -97.64389 | 1763 ft | 79 kts | 181° |
| 2026-04-27 22:36 | 35.26800 | -97.64322 | 1551 ft | 57 kts | 186° |
| 2026-04-27 22:36 | 35.26167 | -97.64349 | 2037 ft | 86 kts | 180° |
| 2026-04-27 22:36 | 35.25641 | -97.64299 | 1902 ft | 77 kts | 171° |
| 2026-04-27 22:37 | 35.25147 | -97.64302 | 1784 ft | 67 kts | 214° |
| 2026-04-27 22:37 | 35.25112 | -97.64756 | 1559 ft | 68 kts | 328° |
| 2026-04-27 22:37 | 35.25507 | -97.65014 | 1453 ft | 58 kts | 327° |
| 2026-04-27 22:37 | 35.25792 | -97.65143 | 1316 ft | 0 kts | 358° |
| 2026-04-27 22:38 | 35.26101 | -97.65268 | 1562 ft | 0 kts | 341° |
| 2026-04-27 22:38 | 35.26150 | -97.65287 | 1358 ft | 2 kts | 128° |
| 2026-04-27 22:38 | 35.26347 | -97.65497 | 1735 ft | 0 kts | 321° |
| 2026-04-27 22:39 | 35.26996 | -97.66149 | 1587 ft | 135 kts | 303° |
| 2026-04-27 22:39 | 35.26741 | -97.67058 | 1777 ft | 125 kts | 212° |
| 2026-04-27 22:39 | 35.25876 | -97.67206 | 1923 ft | 133 kts | 187° |
| 2026-04-27 22:39 | 35.25194 | -97.66701 | 2016 ft | 121 kts | 86° |
| 2026-04-27 22:40 | 35.25785 | -97.66146 | 1692 ft | 136 kts | 359° |
| 2026-04-27 22:40 | 35.26471 | -97.66617 | 1988 ft | 121 kts | 281° |
| 2026-04-27 22:40 | 35.25836 | -97.67299 | 2038 ft | 148 kts | 188° |
| 2026-04-27 22:40 | 35.24887 | -97.67001 | 2044 ft | 146 kts | 138° |
| 2026-04-27 22:41 | 35.24028 | -97.66389 | 2038 ft | 143 kts | 140° |
| 2026-04-27 22:41 | 35.24167 | -97.65477 | 1718 ft | 143 kts | 14° |
| 2026-04-27 22:41 | 35.25064 | -97.65617 | 1631 ft | 125 kts | 327° |
| 2026-04-27 22:41 | 35.25765 | -97.66082 | 1439 ft | 117 kts | 359° |
| 2026-04-27 22:42 | 35.26477 | -97.65643 | 1632 ft | 106 kts | 27° |
| 2026-04-27 22:42 | 35.27053 | -97.65795 | 1671 ft | 103 kts | 312° |
| 2026-04-27 22:42 | 35.26730 | -97.66222 | 1528 ft | 108 kts | 183° |
| 2026-04-27 22:42 | 35.25997 | -97.66223 | 1375 ft | 95 kts | 184° |
| 2026-04-27 22:43 | 35.25442 | -97.66245 | 1383 ft | 71 kts | 190° |
| 2026-04-27 22:43 | 35.24872 | -97.66240 | 1477 ft | 95 kts | 185° |
| 2026-04-27 22:43 | 35.24145 | -97.66083 | 1626 ft | 115 kts | 146° |
| 2026-04-27 22:43 | 35.23923 | -97.65287 | 1854 ft | 97 kts | 52° |
| 2026-04-27 22:44 | 35.24514 | -97.65080 | 1489 ft | 95 kts | 7° |
| 2026-04-27 22:44 | 35.25067 | -97.64778 | 1385 ft | 76 kts | 20° |
| 2026-04-27 22:44 | 35.25483 | -97.64501 | 1288 ft | 57 kts | 27° |
| 2026-04-27 22:44 | 35.25628 | -97.64339 | 1290 ft | 0 kts | 36° |
| 2026-04-27 22:45 | 35.26140 | -97.64807 | 1797 ft | 104 kts | 319° |
| 2026-04-27 22:45 | 35.26456 | -97.65474 | 1753 ft | 88 kts | 275° |
| 2026-04-27 22:46 | 35.26235 | -97.66171 | 1467 ft | 97 kts | 221° |
| 2026-04-27 22:46 | 35.25613 | -97.66246 | 1362 ft | 75 kts | 193° |
| 2026-04-27 22:46 | 35.25033 | -97.66186 | 1485 ft | 90 kts | 174° |
| 2026-04-27 22:46 | 35.24629 | -97.65659 | 1670 ft | 99 kts | 89° |
| 2026-04-27 22:47 | 35.24995 | -97.64972 | 1772 ft | 107 kts | 15° |
| 2026-04-27 22:47 | 35.25808 | -97.64901 | 1762 ft | 128 kts | 354° |
| 2026-04-27 22:47 | 35.26696 | -97.65056 | 1811 ft | 125 kts | 329° |
| 2026-04-27 22:47 | 35.26760 | -97.65935 | 1644 ft | 133 kts | 219° |
| 2026-04-27 22:48 | 35.25947 | -97.66225 | 1376 ft | 107 kts | 196° |
| 2026-04-27 22:48 | 35.25339 | -97.66261 | 1413 ft | 82 kts | 180° |
| 2026-04-27 22:48 | 35.24727 | -97.66229 | 1578 ft | 92 kts | 182° |
| 2026-04-27 22:48 | 35.24276 | -97.66636 | 1725 ft | 91 kts | 246° |
| 2026-04-27 22:49 | 35.23913 | -97.67328 | 1850 ft | 103 kts | 241° |
| 2026-04-27 22:49 | 35.23491 | -97.68063 | 2065 ft | 107 kts | 241° |
| 2026-04-27 22:49 | 35.23043 | -97.68836 | 2234 ft | 115 kts | 241° |
| 2026-04-27 22:49 | 35.22557 | -97.69574 | 2547 ft | 105 kts | 229° |
| 2026-04-27 22:50 | 35.22066 | -97.70248 | 2744 ft | 111 kts | 234° |
| 2026-04-27 22:50 | 35.21546 | -97.71019 | 2857 ft | 122 kts | 236° |
| 2026-04-27 22:50 | 35.21042 | -97.71853 | 3043 ft | 122 kts | 238° |
| 2026-04-27 22:50 | 35.20536 | -97.72679 | 3196 ft | 120 kts | 234° |
| 2026-04-27 22:51 | 35.20027 | -97.73472 | 3360 ft | 120 kts | 234° |
| 2026-04-27 22:51 | 35.19522 | -97.74273 | 3523 ft | 120 kts | 235° |
| 2026-04-27 22:51 | 35.19017 | -97.75078 | 3665 ft | 119 kts | 237° |
| 2026-04-27 22:51 | 35.18526 | -97.75877 | 3799 ft | 117 kts | 234° |
| 2026-04-27 22:52 | 35.18035 | -97.76669 | 3937 ft | 116 kts | 234° |
| 2026-04-27 22:52 | 35.17598 | -97.77471 | 4101 ft | 110 kts | 251° |
| 2026-04-27 22:52 | 35.17436 | -97.78163 | 4663 ft | 61 kts | 256° |
| 2026-04-27 22:52 | 35.17419 | -97.78624 | 4751 ft | 53 kts | 269° |
| 2026-04-27 22:53 | 35.17446 | -97.79385 | 4497 ft | 108 kts | 264° |
| 2026-04-27 22:53 | 35.17407 | -97.80370 | 4529 ft | 116 kts | 266° |
| 2026-04-27 22:53 | 35.17327 | -97.81211 | 4886 ft | 70 kts | 257° |
| 2026-04-27 22:53 | 35.17288 | -97.81662 | 4759 ft | 68 kts | 256° |
| 2026-04-27 22:54 | 35.17194 | -97.82383 | 4901 ft | 74 kts | 257° |
| 2026-04-27 22:54 | 35.17160 | -97.82979 | 5209 ft | 55 kts | 248° |
| 2026-04-27 22:54 | 35.17133 | -97.83431 | 5350 ft | 58 kts | 254° |
| 2026-04-27 22:54 | 35.17041 | -97.83801 | 4824 ft | 50 kts | 276° |
| 2026-04-27 22:55 | 35.17850 | -97.83984 | 4733 ft | 115 kts | 351° |
| 2026-04-27 22:55 | 35.18741 | -97.84141 | 4720 ft | 127 kts | 356° |
| 2026-04-27 22:55 | 35.19485 | -97.84172 | 4906 ft | 117 kts | 349° |
| 2026-04-27 22:55 | 35.20208 | -97.84239 | 5242 ft | 104 kts | 355° |
| 2026-04-27 22:56 | 35.20988 | -97.84217 | 5399 ft | 110 kts | 4° |
| 2026-04-27 22:56 | 35.21742 | -97.84041 | 5564 ft | 116 kts | 7° |
| 2026-04-27 22:56 | 35.22510 | -97.83636 | 5732 ft | 118 kts | 28° |
| 2026-04-27 22:56 | 35.23059 | -97.83235 | 6134 ft | 88 kts | 24° |
| 2026-04-27 22:57 | 35.23572 | -97.82983 | 5521 ft | 98 kts | 326° |
| 2026-04-27 22:57 | 35.23580 | -97.84072 | 5339 ft | 120 kts | 261° |
| 2026-04-27 22:57 | 35.23582 | -97.85036 | 5725 ft | 65 kts | 267° |
| 2026-04-27 22:57 | 35.23692 | -97.85433 | 5349 ft | 108 kts | 296° |
| 2026-04-27 22:58 | 35.23753 | -97.86048 | 5631 ft | 80 kts | 207° |
| 2026-04-27 22:58 | 35.23238 | -97.86448 | 5719 ft | 92 kts | 218° |
| 2026-04-27 22:58 | 35.22659 | -97.86937 | 5598 ft | 117 kts | 214° |
| 2026-04-27 22:58 | 35.21884 | -97.87388 | 5473 ft | 127 kts | 206° |
| 2026-04-27 22:59 | 35.21101 | -97.87950 | 5256 ft | 136 kts | 213° |
| 2026-04-27 22:59 | 35.20241 | -97.88570 | 4839 ft | 146 kts | 208° |
| 2026-04-27 22:59 | 35.19322 | -97.89138 | 4289 ft | 150 kts | 206° |
| 2026-04-27 22:59 | 35.18323 | -97.89671 | 3638 ft | 159 kts | 212° |
| 2026-04-27 23:00 | 35.16627 | -97.91211 | 2571 ft | 137 kts | 200° |
| 2026-04-27 23:00 | 35.15667 | -97.91547 | 2444 ft | 151 kts | 198° |
| 2026-04-27 23:00 | 35.14776 | -97.92111 | 2699 ft | 143 kts | 212° |
| 2026-04-27 23:01 | 35.13923 | -97.92781 | 2778 ft | 150 kts | 217° |
| 2026-04-27 23:01 | 35.13067 | -97.93517 | 2871 ft | 152 kts | 218° |
| 2026-04-27 23:01 | 35.12209 | -97.94276 | 2973 ft | 154 kts | 219° |
| 2026-04-27 23:01 | 35.11361 | -97.95091 | 2969 ft | 155 kts | 222° |
| 2026-04-27 23:02 | 35.10563 | -97.95944 | 2995 ft | 153 kts | 225° |
| 2026-04-27 23:02 | 35.09948 | -97.97026 | 2904 ft | 155 kts | 242° |
| 2026-04-27 23:02 | 35.09203 | -97.98004 | 2715 ft | 157 kts | 219° |
| 2026-04-27 23:02 | 35.08264 | -97.98494 | 2575 ft | 140 kts | 182° |
| 2026-04-27 23:03 | 35.07427 | -97.98156 | 2432 ft | 119 kts | 133° |
| 2026-04-27 23:03 | 35.07110 | -97.97374 | 2253 ft | 93 kts | 80° |
| 2026-04-27 23:03 | 35.07463 | -97.96869 | 2003 ft | 82 kts | 7° |
| 2026-04-27 23:03 | 35.08116 | -97.96902 | 1664 ft | 100 kts | 349° |
| 2026-04-27 23:04 | 35.08846 | -97.96907 | 1250 ft | 103 kts | 356° |
| 2026-04-27 23:04 | 35.09488 | -97.96913 | 1228 ft | 85 kts | 349° |
| 2026-04-27 23:04 | 35.09994 | -97.97145 | 1368 ft | 74 kts | 297° |
| 2026-04-27 23:04 | 35.10017 | -97.97656 | 1565 ft | 59 kts | 223° |
| 2026-04-27 23:05 | 35.09502 | -97.97740 | 1638 ft | 93 kts | 184° |
| 2026-04-27 23:05 | 35.08991 | -97.97401 | 1686 ft | 96 kts | 127° |
| 2026-04-27 23:05 | 35.09423 | -97.96893 | 1233 ft | 113 kts | 345° |
| 2026-04-27 23:05 | 35.10099 | -97.96917 | 1150 ft | 81 kts | 343° |
| 2026-04-27 23:06 | 35.10680 | -97.97008 | 1270 ft | 92 kts | 337° |
| 2026-04-27 23:06 | 35.11231 | -97.97301 | 1536 ft | 81 kts | 293° |
| 2026-04-27 23:06 | 35.11272 | -97.97936 | 1826 ft | 70 kts | 255° |
| 2026-04-27 23:06 | 35.10927 | -97.98387 | 1905 ft | 96 kts | 180° |
| 2026-04-27 23:07 | 35.10194 | -97.98308 | 1990 ft | 115 kts | 186° |
| 2026-04-27 23:07 | 35.09353 | -97.98406 | 2121 ft | 126 kts | 173° |
| 2026-04-27 23:07 | 35.08421 | -97.98265 | 2061 ft | 150 kts | 158° |
| 2026-04-27 23:07 | 35.07541 | -97.97630 | 1981 ft | 164 kts | 136° |
| 2026-04-27 23:08 | 35.07767 | -97.96877 | 1848 ft | 137 kts | 350° |
| 2026-04-27 23:08 | 35.08695 | -97.96913 | 1329 ft | 132 kts | 353° |
| 2026-04-27 23:08 | 35.09545 | -97.96894 | 1152 ft | 111 kts | 353° |
| 2026-04-27 23:08 | 35.10246 | -97.96725 | 1202 ft | 109 kts | 1° |
| 2026-04-27 23:09 | 35.10853 | -97.96779 | 1490 ft | 79 kts | 274° |
| 2026-04-27 23:09 | 35.10305 | -97.97029 | 1344 ft | 127 kts | 159° |
| 2026-04-27 23:09 | 35.09420 | -97.96855 | 1150 ft | 137 kts | 187° |
| 2026-04-27 23:09 | 35.08634 | -97.96845 | 1512 ft | 110 kts | 188° |
| 2026-04-27 23:10 | 35.08688 | -97.97214 | 1313 ft | 149 kts | 20° |
| 2026-04-27 23:10 | 35.09571 | -97.96908 | 1155 ft | 118 kts | 349° |
| 2026-04-27 23:10 | 35.10318 | -97.96918 | 1167 ft | 92 kts | 352° |
| 2026-04-27 23:10 | 35.11018 | -97.96785 | 1211 ft | 119 kts | 9° |
| 2026-04-27 23:11 | 35.11854 | -97.96462 | 1324 ft | 116 kts | 343° |
| 2026-04-27 23:11 | 35.12603 | -97.96226 | 1260 ft | 127 kts | 25° |
| 2026-04-27 23:11 | 35.12929 | -97.96617 | 1330 ft | 109 kts | 225° |
| 2026-04-27 23:11 | 35.12175 | -97.96974 | 1356 ft | 127 kts | 181° |
| 2026-04-27 23:12 | 35.11345 | -97.96856 | 1315 ft | 113 kts | 190° |
| 2026-04-27 23:12 | 35.10601 | -97.96907 | 1228 ft | 101 kts | 191° |
| 2026-04-27 23:12 | 35.09961 | -97.96911 | 1146 ft | 81 kts | 189° |
| 2026-04-27 23:12 | 35.09401 | -97.96897 | 1174 ft | 94 kts | 188° |
| 2026-04-27 23:13 | 35.08743 | -97.96985 | 1137 ft | 46 kts | 204° |
| 2026-04-27 23:13 | 35.08790 | -97.96959 | 1612 ft | 30 kts | 213° |
| 2026-04-27 23:13 | 35.08503 | -97.97368 | 1441 ft | 84 kts | 250° |
| 2026-04-27 23:13 | 35.08322 | -97.97994 | 1382 ft | 73 kts | 237° |
| 2026-04-27 23:14 | 35.07875 | -97.98249 | 1258 ft | 56 kts | 211° |
| 2026-04-27 23:14 | 35.07492 | -97.98295 | 1133 ft | 63 kts | 183° |
| 2026-04-27 23:14 | 35.07018 | -97.98078 | 1261 ft | 92 kts | 146° |
| 2026-04-27 23:14 | 35.06774 | -97.97376 | 1254 ft | 79 kts | 122° |
| 2026-04-27 23:15 | 35.06599 | -97.96870 | 1107 ft | 60 kts | 337° |
| 2026-04-27 23:15 | 35.06767 | -97.97006 | 1951 ft | 1004 kts | 328° |
| 2026-04-27 23:15 | 35.07406 | -97.97420 | 2070 ft | 97 kts | 15° |
| 2026-04-27 23:15 | 35.08041 | -97.96654 | 1463 ft | 125 kts | 5° |
| 2026-04-27 23:16 | 35.08692 | -97.96885 | 1273 ft | 91 kts | 326° |
| 2026-04-27 23:16 | 35.09266 | -97.96914 | 1155 ft | 75 kts | 334° |
| 2026-04-27 23:16 | 35.09730 | -97.96921 | 1144 ft | 61 kts | 352° |
| 2026-04-27 23:16 | 35.10256 | -97.96908 | 1226 ft | 82 kts | 348° |
| 2026-04-27 23:17 | 35.10850 | -97.96864 | 1442 ft | 88 kts | 352° |
| 2026-04-27 23:17 | 35.11517 | -97.96788 | 1629 ft | 104 kts | 357° |
| 2026-04-27 23:17 | 35.12203 | -97.96654 | 1920 ft | 103 kts | 8° |
| 2026-04-27 23:17 | 35.12872 | -97.96495 | 2210 ft | 97 kts | 9° |
| 2026-04-27 23:18 | 35.13542 | -97.96359 | 2494 ft | 99 kts | 12° |
| 2026-04-27 23:18 | 35.14088 | -97.95883 | 2758 ft | 103 kts | 61° |
| 2026-04-27 23:18 | 35.14275 | -97.95024 | 3048 ft | 103 kts | 72° |
| 2026-04-27 23:18 | 35.14431 | -97.94181 | 3171 ft | 103 kts | 71° |
| 2026-04-27 23:19 | 35.14563 | -97.93332 | 3308 ft | 103 kts | 76° |
| 2026-04-27 23:19 | 35.14679 | -97.92495 | 3463 ft | 85 kts | 70° |
| 2026-04-27 23:19 | 35.15194 | -97.92143 | 3410 ft | 94 kts | 30° |
| 2026-04-27 23:19 | 35.15734 | -97.91618 | 3406 ft | 105 kts | 38° |
| 2026-04-27 23:20 | 35.16134 | -97.91042 | 3780 ft | 78 kts | 50° |
| 2026-04-27 23:20 | 35.16439 | -97.90437 | 3848 ft | 90 kts | 52° |
| 2026-04-27 23:20 | 35.16823 | -97.89753 | 3868 ft | 102 kts | 50° |